Shekhupura, Pakistan
Current Conditions -  °F | °C
As of 1:25 AM on Wednesday 26 Nov 2014 (Local Time) from OPLA Reporting Station
Smoke Smoke  
Wind Chill: 55°   Ceiling: Unl
Heat Index: 55°   Visibility: 2.5mi
Dew Point: 48°   Wind: 0mph
Humidity: 77%   Direction: NA
Pressure: NA   Gusts: NA
Location:  31.72°N, 73.98°E
Report Text: OPLA 252025Z 00000KT 4000 FU NSC 13/09 Q1014/A29.95
Loading
Personal Weather Stations






























Interactive Weather Map New forecast layout! Learn more

10-Day Weather Forecast

Advertisements
Track Severe Weather on mobile